Moab, UT

1:21 PM MDT op 27 augustus 2015 (GMT -0600)
Moab | | Change Station
CLOSE
Current Station
Persoonlijk weerstation
Location: Moab, UT
Geometrische hoogte: 4239 ft
Nabije weerstations

Hoogte 4239 ft 38.55 °N, 109.52 °W | Updated 11 minutes ago

Helder
Helder
84.2 °F
Voelt als 86 °F
N
0.0
Wind Variabel Wind van ZZW
Gusts 2.0 mijl/u

Vandaag
Hoog -- | Laag -- °F
--% Kans op neerslag
Gisteren
Hoog -- | Laag -- °F
Precip. -- inches
6:42 AM 7:55 PM
Wassende maan, 94% visible
Druk 30.06 inches
Zicht 10.0 mijlen
Wolken Helder
Warmteindex 86 °F
Dauwpunt 64 °F
Vochtigheid 51%
Neerslag 0.00 inches
Dikte sneeuw Niet beschikbaar.
UV 10 van de 12
Pollen 6.40 van de 12
Luchtkwaliteit Niet beschikbaar.
Flu Activity Niet beschikbaar.
METAR KCNY 271853Z AUTO 27009KT 10SM CLR 27/16 A3022 RMK AO2 SLP178 T02670156
Druk 30.06 inches
Zicht 10.0 mijlen
Wolken Helder
Warmteindex 86 °F
Dauwpunt 64 °F
Vochtigheid 51%
Neerslag 0.00 inches
Dikte sneeuw Niet beschikbaar.
UV 10 van de 12
Pollen 6.40 van de 12
Luchtkwaliteit Niet beschikbaar.
Flu Activity Niet beschikbaar.
METAR KCNY 271853Z AUTO 27009KT 10SM CLR 27/16 A3022 RMK AO2 SLP178 T02670156

10-Day Weather Forecast

×

Almanac

Astronomie

Aug. 27, 2015 Opkomst Ondergang
Werkelijke tijd
Burgerlijke schemering
Nautische schemering
Astronomische schemering
Maan
Golflengte van het zichtbare licht
Daglengte
Tomorrow will be .
, % of the Moon is Illuminated

Extremen vandaag

State Highs State Lows

Community

WunderPhotos

Upload Photos

1,850,195 foto’s ge-upload!

WunderBlogs® & News

Nearby

Luchtkwaliteit

  Luchtkwaliteit LK-index Verontreinigende stof
Not available.

Dikte sneeuw

Station Depth Geometrische hoogte

Aardbevingen

Stad Distance Mag. Time & Date
Minimum magnitude displayed is 2.5.

Watertemperatuur langs de kust

Plaats Temperatuur

Stations

Nabije weerstations

Locatie station Temp. Gevoelstemperatuur Dauwpunt Vochtigheid Wind Precip. Hoogte Geactualiseerd Type